Time;durP1;ratioP1;P1;durP2;ratioP2;P2;SDS_P1;SDS_P2;PMS_P1;PMS_P2;Temp;Humidity;BMP_temperature;BMP_pressure;BME280_temperature;BME280_humidity;BME280_pressure;Samples;Min_cycle;Max_cycle;Signal;HPM_P1;HPM_P2
2023/10/21 00:01:12;;;;;;;18.38;15.75;;;11.50;99.90;;;;;;4998048;28;20053;-71
2023/10/21 00:03:38;;;;;;;21.30;16.73;;;11.50;99.90;;;;;;5004945;28;20052;-69
2023/10/21 00:06:06;;;;;;;23.27;16.20;;;11.50;99.90;;;;;;4980766;28;20034;-71
2023/10/21 00:08:33;;;;;;;19.75;16.85;;;11.50;99.90;;;;;;5001257;28;20054;-70
2023/10/21 00:11:09;;;;;;;23.20;16.55;;;11.50;99.90;;;;;;4996372;28;20057;-71
2023/10/21 00:13:36;;;;;;;19.85;16.98;;;11.40;99.90;;;;;;5006395;28;20057;-70
2023/10/21 00:16:03;;;;;;;22.13;17.27;;;11.40;99.90;;;;;;5009782;28;20038;-69
2023/10/21 00:18:30;;;;;;;18.40;16.55;;;11.40;99.90;;;;;;4983524;28;20054;-70
2023/10/21 00:20:57;;;;;;;24.77;18.02;;;11.30;99.90;;;;;;5003955;28;20037;-69
2023/10/21 00:23:24;;;;;;;21.77;18.25;;;11.30;99.90;;;;;;5013555;28;20611;-70
2023/10/21 00:25:51;;;;;;;20.85;17.38;;;11.40;99.90;;;;;;5001550;28;20061;-70
2023/10/21 00:28:18;;;;;;;22.83;17.83;;;11.40;99.90;;;;;;4998255;28;20045;-69
2023/10/21 00:30:47;;;;;;;26.20;20.02;;;11.50;99.90;;;;;;5002656;28;20684;-71
2023/10/21 00:33:14;;;;;;;25.00;19.92;;;11.50;99.90;;;;;;4998594;28;20575;-71
2023/10/21 00:35:45;;;;;;;19.95;17.85;;;11.50;99.90;;;;;;4995166;28;20274;-70
2023/10/21 00:38:12;;;;;;;24.02;16.85;;;11.60;99.90;;;;;;5010057;28;20053;-70
2023/10/21 00:40:49;;;;;;;27.58;17.33;;;11.60;99.90;;;;;;4997389;28;20057;-70
2023/10/21 00:43:32;;;;;;;20.35;15.52;;;11.70;99.90;;;;;;4996334;28;20081;-70
2023/10/21 00:46:17;;;;;;;18.83;16.40;;;11.80;99.90;;;;;;5000931;28;20042;-71
2023/10/21 00:48:48;;;;;;;18.83;16.08;;;11.80;99.90;;;;;;5003479;28;20058;-71
2023/10/21 00:51:15;;;;;;;18.27;15.63;;;11.80;99.90;;;;;;4999361;28;20045;-71
2023/10/21 00:53:43;;;;;;;20.20;16.40;;;11.90;99.90;;;;;;5000429;28;20059;-71
2023/10/21 00:56:10;;;;;;;17.38;14.68;;;11.90;99.90;;;;;;5005946;28;20063;-70
2023/10/21 00:58:37;;;;;;;19.55;16.38;;;11.90;99.90;;;;;;4997297;28;20672;-70
2023/10/21 01:01:06;;;;;;;21.00;16.85;;;11.90;99.90;;;;;;5004413;28;20048;-71
2023/10/21 01:03:35;;;;;;;22.02;16.52;;;12.00;99.90;;;;;;5011639;28;20062;-72
2023/10/21 01:06:03;;;;;;;17.77;14.80;;;12.00;99.90;;;;;;4999884;28;20515;-71
2023/10/21 01:08:30;;;;;;;21.85;16.98;;;12.00;99.90;;;;;;4999396;28;20042;-70
2023/10/21 01:10:58;;;;;;;19.35;15.88;;;12.10;99.90;;;;;;5002709;28;20127;-72
2023/10/21 01:13:25;;;;;;;18.77;16.58;;;12.10;99.90;;;;;;4999285;28;20070;-69
2023/10/21 01:15:52;;;;;;;19.88;16.77;;;12.10;99.90;;;;;;5011652;28;20068;-71
2023/10/21 01:18:20;;;;;;;23.25;17.92;;;12.20;99.90;;;;;;5003663;28;20439;-71
2023/10/21 01:20:54;;;;;;;25.63;17.13;;;12.20;99.90;;;;;;4996820;28;20076;-71
2023/10/21 01:23:21;;;;;;;20.50;17.65;;;12.20;99.90;;;;;;5000139;28;20520;-71
2023/10/21 01:25:47;;;;;;;21.23;18.10;;;12.20;99.90;;;;;;4992820;28;20476;-71
2023/10/21 01:28:14;;;;;;;23.42;19.35;;;12.30;99.90;;;;;;4981940;28;20060;-69
2023/10/21 01:30:41;;;;;;;24.33;19.55;;;12.20;99.90;;;;;;5023216;28;20052;-70
2023/10/21 01:33:08;;;;;;;29.25;20.58;;;12.20;99.90;;;;;;4997225;28;20054;-71
2023/10/21 01:35:35;;;;;;;27.95;21.20;;;12.30;99.90;;;;;;4973779;28;20424;-70
2023/10/21 01:38:02;;;;;;;26.00;19.52;;;12.30;99.90;;;;;;4978911;28;20046;-71
2023/10/21 01:40:29;;;;;;;28.65;21.13;;;12.30;99.90;;;;;;5001292;28;20115;-70
2023/10/21 01:42:55;;;;;;;26.65;21.73;;;12.30;99.90;;;;;;4995000;28;20041;-71
2023/10/21 01:45:23;;;;;;;25.23;20.20;;;12.30;99.90;;;;;;4995651;28;20621;-71
2023/10/21 01:47:50;;;;;;;22.65;18.65;;;12.20;99.90;;;;;;4997884;28;20049;-71
2023/10/21 01:50:17;;;;;;;22.52;19.15;;;12.20;99.90;;;;;;5002264;28;20038;-69
2023/10/21 01:52:44;;;;;;;26.10;19.52;;;12.20;99.90;;;;;;4998412;28;20041;-71
2023/10/21 01:55:11;;;;;;;31.85;19.17;;;12.20;99.90;;;;;;5002960;28;20487;-70
2023/10/21 01:57:38;;;;;;;20.05;16.60;;;12.20;99.90;;;;;;5002587;28;20050;-72
2023/10/21 02:00:09;;;;;;;18.88;15.82;;;12.10;99.90;;;;;;5000433;28;20148;-70
2023/10/21 02:02:39;;;;;;;22.63;15.88;;;12.10;99.90;;;;;;5002844;28;20061;-70
2023/10/21 02:05:06;;;;;;;21.27;16.20;;;12.10;99.90;;;;;;4993045;28;20087;-71
2023/10/21 02:07:38;;;;;;;20.10;16.48;;;12.10;99.90;;;;;;4997277;28;20111;-71
2023/10/21 02:10:05;;;;;;;20.67;14.70;;;12.20;99.90;;;;;;5003430;28;20134;-71
2023/10/21 02:12:32;;;;;;;21.65;16.42;;;12.10;99.90;;;;;;4991605;28;20045;-71
2023/10/21 02:14:59;;;;;;;20.25;16.60;;;12.10;99.90;;;;;;5003068;28;20050;-71
2023/10/21 02:17:26;;;;;;;18.95;16.05;;;12.10;99.90;;;;;;5001324;28;20042;-71
2023/10/21 02:19:56;;;;;;;19.80;15.43;;;12.10;99.90;;;;;;5001685;28;20149;-70
2023/10/21 02:22:24;;;;;;;21.35;16.70;;;12.10;99.90;;;;;;4991640;28;20966;-71
2023/10/21 02:24:53;;;;;;;20.27;16.88;;;12.10;99.90;;;;;;4996246;28;20068;-70
2023/10/21 02:27:20;;;;;;;18.70;16.52;;;12.00;99.90;;;;;;4999191;28;20550;-71
2023/10/21 02:29:47;;;;;;;18.38;16.02;;;12.00;99.90;;;;;;4983114;28;20068;-72
2023/10/21 02:32:15;;;;;;;17.25;14.60;;;12.10;99.90;;;;;;5002265;28;20119;-72
2023/10/21 02:34:42;;;;;;;19.83;14.88;;;12.00;99.90;;;;;;4987566;28;20038;-70
2023/10/21 02:37:09;;;;;;;18.20;15.48;;;12.00;99.90;;;;;;4995055;28;20497;-72
2023/10/21 02:39:37;;;;;;;21.13;15.02;;;12.10;99.90;;;;;;4993218;28;20054;-70
2023/10/21 02:42:04;;;;;;;17.13;15.13;;;12.10;99.90;;;;;;4995107;28;20041;-69
2023/10/21 02:44:31;;;;;;;16.67;14.52;;;12.10;99.90;;;;;;4997917;28;20232;-71
2023/10/21 02:46:58;;;;;;;21.35;15.80;;;12.10;99.90;;;;;;5006660;28;20111;-69
2023/10/21 02:49:25;;;;;;;17.17;15.20;;;12.10;99.90;;;;;;4997691;28;20072;-72
2023/10/21 02:51:52;;;;;;;24.00;16.05;;;12.10;99.90;;;;;;4997798;28;20046;-71
2023/10/21 02:54:18;;;;;;;18.52;14.85;;;12.00;99.90;;;;;;5002325;28;20156;-72
2023/10/21 02:56:45;;;;;;;18.67;14.25;;;12.00;99.90;;;;;;4997582;28;20534;-72
2023/10/21 02:59:12;;;;;;;16.15;13.63;;;12.00;99.90;;;;;;5005234;28;20046;-71
2023/10/21 03:01:40;;;;;;;16.38;14.05;;;12.00;99.90;;;;;;4998471;28;20058;-70
2023/10/21 03:04:07;;;;;;;21.77;15.88;;;11.90;99.90;;;;;;5004083;28;20080;-70
2023/10/21 03:06:34;;;;;;;16.63;14.35;;;12.00;99.90;;;;;;5005541;28;20832;-70
2023/10/21 03:09:01;;;;;;;17.20;14.02;;;12.00;99.90;;;;;;5012102;28;20041;-71
2023/10/21 03:11:28;;;;;;;17.08;13.65;;;12.00;99.90;;;;;;5023781;28;20049;-70
2023/10/21 03:13:54;;;;;;;19.65;15.25;;;12.00;99.90;;;;;;5020355;28;20100;-69
2023/10/21 03:16:21;;;;;;;18.17;14.57;;;12.00;99.90;;;;;;5029012;28;20062;-71
2023/10/21 03:18:48;;;;;;;15.88;13.07;;;12.00;99.90;;;;;;5011206;28;20045;-71
2023/10/21 03:21:15;;;;;;;16.48;13.52;;;12.00;99.90;;;;;;4984714;28;20056;-71
2023/10/21 03:23:43;;;;;;;16.45;13.52;;;12.00;99.90;;;;;;4998311;28;20076;-73
2023/10/21 03:26:09;;;;;;;17.20;14.45;;;12.00;99.90;;;;;;5012668;28;20045;-71
2023/10/21 03:28:38;;;;;;;15.13;13.52;;;12.00;99.90;;;;;;4985520;28;20116;-70
2023/10/21 03:31:05;;;;;;;15.98;14.27;;;12.00;99.90;;;;;;5001074;28;20132;-71
2023/10/21 03:33:33;;;;;;;15.32;13.73;;;12.00;99.90;;;;;;5000368;28;20080;-71
2023/10/21 03:36:04;;;;;;;14.98;12.93;;;12.00;99.90;;;;;;4999887;28;20113;-71
2023/10/21 03:38:31;;;;;;;14.52;13.13;;;12.00;99.90;;;;;;5004957;28;20173;-71
2023/10/21 03:41:05;;;;;;;14.88;13.27;;;12.00;99.90;;;;;;4997976;28;20053;-72
2023/10/21 03:43:34;;;;;;;13.95;12.55;;;12.00;99.90;;;;;;5006895;28;20045;-71
2023/10/21 03:46:08;;;;;;;15.75;11.55;;;12.00;99.90;;;;;;5001707;28;20863;-71
2023/10/21 03:48:35;;;;;;;13.65;11.77;;;12.00;99.90;;;;;;5001365;28;20049;-72
2023/10/21 03:51:05;;;;;;;14.10;12.63;;;12.00;99.90;;;;;;4998592;28;20049;-72
2023/10/21 03:53:33;;;;;;;13.57;12.15;;;12.00;99.90;;;;;;5008976;28;20108;-72
2023/10/21 03:56:00;;;;;;;14.18;12.00;;;12.00;99.90;;;;;;5001170;28;20460;-72
2023/10/21 03:58:28;;;;;;;13.48;12.18;;;12.00;99.90;;;;;;5007181;28;20053;-71
2023/10/21 04:00:57;;;;;;;12.00;10.63;;;12.10;99.90;;;;;;5005843;28;20058;-72
2023/10/21 04:03:25;;;;;;;13.57;12.35;;;12.10;99.90;;;;;;5004666;28;20037;-71
2023/10/21 04:05:56;;;;;;;12.43;10.57;;;12.00;99.90;;;;;;5006278;28;20049;-71
2023/10/21 04:08:24;;;;;;;14.98;11.90;;;12.00;99.90;;;;;;5006193;28;20084;-72
2023/10/21 04:10:52;;;;;;;13.77;12.38;;;12.10;99.90;;;;;;5001239;28;20053;-73
2023/10/21 04:13:19;;;;;;;13.32;12.02;;;12.10;99.90;;;;;;5000825;28;20088;-73
2023/10/21 04:15:46;;;;;;;14.52;12.70;;;12.10;99.90;;;;;;4999650;28;20049;-71
2023/10/21 04:18:14;;;;;;;13.65;12.25;;;12.10;99.90;;;;;;5008677;28;20532;-72
2023/10/21 04:20:40;;;;;;;13.63;12.38;;;12.10;99.90;;;;;;5001624;28;20148;-70
2023/10/21 04:23:07;;;;;;;13.82;12.43;;;12.20;99.90;;;;;;4995674;28;20116;-71
2023/10/21 04:25:34;;;;;;;13.45;12.15;;;12.10;99.90;;;;;;5000715;28;20049;-72
2023/10/21 04:28:01;;;;;;;15.52;13.15;;;12.20;99.90;;;;;;4997606;28;21461;-72
2023/10/21 04:30:28;;;;;;;15.30;13.50;;;12.20;99.90;;;;;;4999694;28;20046;-72
2023/10/21 04:32:55;;;;;;;15.05;13.45;;;12.20;99.90;;;;;;4997407;28;20042;-73
2023/10/21 04:35:22;;;;;;;16.23;13.60;;;12.20;99.90;;;;;;5003495;28;20064;-72
2023/10/21 04:37:49;;;;;;;16.75;12.57;;;12.10;99.90;;;;;;4981127;28;20058;-72
2023/10/21 04:40:16;;;;;;;16.48;13.15;;;12.10;99.90;;;;;;4999521;28;20046;-72
2023/10/21 04:42:43;;;;;;;14.43;13.02;;;12.10;99.90;;;;;;4995097;28;20104;-72
2023/10/21 04:45:10;;;;;;;15.95;12.60;;;12.20;99.90;;;;;;5003696;28;20070;-70
2023/10/21 04:47:37;;;;;;;14.30;13.00;;;12.30;99.90;;;;;;4995315;28;20512;-71
2023/10/21 04:50:05;;;;;;;13.93;12.63;;;12.20;99.90;;;;;;4998609;28;20136;-71
2023/10/21 04:52:32;;;;;;;17.45;12.45;;;12.30;99.90;;;;;;5000909;28;20046;-72
2023/10/21 04:55:00;;;;;;;12.95;11.50;;;12.30;99.90;;;;;;4990113;28;20053;-69
2023/10/21 04:57:27;;;;;;;13.00;11.80;;;12.30;99.90;;;;;;4998139;28;20132;-69
2023/10/21 04:59:53;;;;;;;13.77;12.45;;;12.30;99.90;;;;;;4999644;28;20138;-69
2023/10/21 05:02:20;;;;;;;14.68;13.20;;;12.30;99.90;;;;;;4998444;28;20053;-71
2023/10/21 05:04:49;;;;;;;13.27;11.95;;;12.30;99.90;;;;;;4994772;28;20542;-70
2023/10/21 05:07:17;;;;;;;14.35;13.05;;;12.30;99.90;;;;;;5013784;28;20045;-69
2023/10/21 05:09:44;;;;;;;14.25;12.95;;;12.40;99.90;;;;;;5000559;28;20048;-69
2023/10/21 05:12:10;;;;;;;15.75;14.00;;;12.50;99.90;;;;;;4997968;28;20103;-70
2023/10/21 05:14:37;;;;;;;15.45;13.95;;;12.40;99.90;;;;;;4999221;28;20044;-69
2023/10/21 05:17:05;;;;;;;16.27;14.50;;;12.40;99.90;;;;;;4992818;28;21365;-69
2023/10/21 05:19:32;;;;;;;18.80;15.30;;;12.40;99.90;;;;;;4998332;28;20033;-69
2023/10/21 05:22:00;;;;;;;15.50;14.00;;;12.30;99.90;;;;;;4998663;28;20068;-70
2023/10/21 05:24:27;;;;;;;14.80;13.27;;;12.30;99.90;;;;;;5001097;28;20049;-71
2023/10/21 05:26:54;;;;;;;14.82;13.48;;;12.30;99.90;;;;;;4994988;28;20045;-70
2023/10/21 05:29:22;;;;;;;15.75;14.05;;;12.30;99.90;;;;;;4994623;28;20054;-69
2023/10/21 05:31:49;;;;;;;14.50;13.15;;;12.30;99.90;;;;;;4995114;28;20052;-70
2023/10/21 05:34:19;;;;;;;14.57;13.00;;;12.30;99.90;;;;;;4995077;28;20046;-69
2023/10/21 05:36:46;;;;;;;16.00;13.35;;;12.30;99.90;;;;;;4994661;28;20045;-68
2023/10/21 05:39:13;;;;;;;16.10;14.57;;;12.30;99.90;;;;;;4996420;28;20067;-70
2023/10/21 05:41:41;;;;;;;15.38;13.38;;;12.30;99.90;;;;;;4997908;28;20535;-69
2023/10/21 05:44:09;;;;;;;13.63;12.32;;;12.30;99.90;;;;;;4995170;28;20073;-69
2023/10/21 05:46:36;;;;;;;13.63;11.93;;;12.30;99.90;;;;;;4996136;28;20052;-69
2023/10/21 05:49:04;;;;;;;14.15;12.65;;;12.30;99.90;;;;;;4991268;28;20045;-68
2023/10/21 05:51:31;;;;;;;12.23;11.10;;;12.30;99.90;;;;;;4996499;28;20107;-68
2023/10/21 05:53:58;;;;;;;11.80;10.68;;;12.30;99.90;;;;;;4996305;28;20042;-69
2023/10/21 05:56:26;;;;;;;11.82;10.73;;;12.30;99.90;;;;;;4999804;28;20144;-69
2023/10/21 05:58:53;;;;;;;14.82;13.15;;;12.30;99.90;;;;;;4997274;28;20041;-68
2023/10/21 06:01:20;;;;;;;11.38;10.35;;;12.30;99.90;;;;;;5015712;28;20132;-68
2023/10/21 06:03:46;;;;;;;13.43;12.15;;;12.30;99.90;;;;;;4995147;28;20042;-68
2023/10/21 06:06:13;;;;;;;10.95;9.88;;;12.30;99.90;;;;;;4997277;28;20079;-69
2023/10/21 06:08:40;;;;;;;8.57;6.70;;;12.30;99.90;;;;;;5021701;28;20122;-67
2023/10/21 06:11:08;;;;;;;6.75;6.13;;;12.30;99.90;;;;;;5019911;28;22068;-73
2023/10/21 06:13:35;;;;;;;4.10;3.30;;;12.30;99.90;;;;;;4995336;28;20033;-70
2023/10/21 06:16:02;;;;;;;3.50;3.22;;;12.40;99.90;;;;;;4994599;28;20060;-70
2023/10/21 06:18:29;;;;;;;4.18;3.25;;;12.40;99.90;;;;;;4997210;28;20143;-70
2023/10/21 06:20:56;;;;;;;4.20;3.78;;;12.40;99.90;;;;;;4977224;28;20543;-70
2023/10/21 06:23:24;;;;;;;4.30;3.75;;;12.50;99.90;;;;;;4990610;28;20137;-71
2023/10/21 06:25:51;;;;;;;4.65;4.00;;;12.50;99.90;;;;;;5001545;28;20037;-70
2023/10/21 06:28:18;;;;;;;5.63;5.00;;;12.50;99.90;;;;;;4994630;28;20124;-70
2023/10/21 06:30:44;;;;;;;8.02;5.97;;;12.50;99.90;;;;;;4995767;28;20042;-71
2023/10/21 06:33:11;;;;;;;9.50;8.15;;;12.50;99.90;;;;;;5002521;28;20045;-69
2023/10/21 06:35:39;;;;;;;9.88;8.73;;;12.50;99.90;;;;;;5021148;28;20044;-70
2023/10/21 06:38:07;;;;;;;14.77;9.05;;;12.50;99.90;;;;;;5003449;28;20053;-70
2023/10/21 06:40:34;;;;;;;11.75;10.55;;;12.50;99.90;;;;;;4999821;28;20072;-68
2023/10/21 06:43:22;;;;;;;12.68;11.43;;;12.50;99.90;;;;;;5004061;28;20046;-68
2023/10/21 06:45:49;;;;;;;12.70;10.38;;;12.60;99.90;;;;;;4999298;28;20050;-68
2023/10/21 06:48:17;;;;;;;11.07;9.95;;;12.50;99.90;;;;;;4993905;28;20042;-68
2023/10/21 06:50:44;;;;;;;9.27;8.02;;;12.50;99.90;;;;;;5002923;28;20046;-69
2023/10/21 06:53:10;;;;;;;6.20;5.60;;;12.50;99.90;;;;;;5024975;28;20045;-69
2023/10/21 06:55:44;;;;;;;5.18;4.78;;;12.40;99.90;;;;;;5007228;28;20109;-69
2023/10/21 06:58:12;;;;;;;5.05;4.55;;;12.40;99.90;;;;;;4994659;28;20054;-69
2023/10/21 07:00:39;;;;;;;6.45;5.15;;;12.40;99.90;;;;;;5027199;28;20544;-69
2023/10/21 07:03:06;;;;;;;5.10;4.80;;;12.40;99.90;;;;;;4995423;28;20049;-67
2023/10/21 07:05:35;;;;;;;6.00;5.50;;;12.40;99.90;;;;;;4997469;28;20747;-68
2023/10/21 07:08:02;;;;;;;6.25;5.75;;;12.40;99.90;;;;;;4993221;28;20140;-68
2023/10/21 07:10:30;;;;;;;5.57;5.15;;;12.40;99.90;;;;;;5001507;28;20050;-69
2023/10/21 07:13:01;;;;;;;6.72;5.78;;;12.30;99.90;;;;;;5007109;28;20048;-69
2023/10/21 07:15:28;;;;;;;5.70;5.30;;;12.40;99.90;;;;;;4997379;28;20054;-70
2023/10/21 07:17:57;;;;;;;5.72;5.22;;;12.40;99.90;;;;;;4998388;28;20041;-69
2023/10/21 07:20:28;;;;;;;5.55;4.90;;;12.30;99.90;;;;;;4995468;28;20696;-70
2023/10/21 07:22:55;;;;;;;5.18;4.47;;;12.30;99.90;;;;;;4996362;28;20038;-68
2023/10/21 07:25:23;;;;;;;5.50;4.60;;;12.30;99.90;;;;;;4995309;28;20061;-70
2023/10/21 07:27:51;;;;;;;7.25;4.93;;;12.30;99.90;;;;;;5003112;28;20069;-68
2023/10/21 07:30:18;;;;;;;5.95;5.22;;;12.40;99.90;;;;;;5008466;28;20116;-68
2023/10/21 07:32:45;;;;;;;5.00;4.60;;;12.40;99.90;;;;;;5040996;28;20045;-68
2023/10/21 07:35:12;;;;;;;4.70;4.40;;;12.40;99.90;;;;;;5018785;28;20046;-69
2023/10/21 07:37:39;;;;;;;5.20;4.70;;;12.60;99.90;;;;;;4981871;28;20453;-70
2023/10/21 07:40:07;;;;;;;5.50;4.95;;;12.60;99.90;;;;;;4995237;28;20125;-68
2023/10/21 07:42:34;;;;;;;6.30;5.82;;;12.70;99.90;;;;;;4996296;28;20049;-70
2023/10/21 07:45:03;;;;;;;5.05;4.65;;;12.70;99.90;;;;;;5009005;28;20057;-69
2023/10/21 07:47:33;;;;;;;6.55;5.90;;;12.70;99.90;;;;;;4995349;28;20052;-70
2023/10/21 07:50:05;;;;;;;6.05;5.75;;;12.80;99.90;;;;;;4992431;28;20045;-70
2023/10/21 07:52:35;;;;;;;6.43;5.93;;;12.80;99.90;;;;;;4994696;28;20583;-69
2023/10/21 07:55:03;;;;;;;5.43;4.90;;;13.00;99.90;;;;;;4997743;28;20073;-69
2023/10/21 07:57:31;;;;;;;4.70;4.30;;;13.00;99.90;;;;;;4997456;28;20045;-70
2023/10/21 08:00:03;;;;;;;4.72;4.32;;;13.00;99.90;;;;;;4994521;28;20042;-68
2023/10/21 08:02:30;;;;;;;4.00;3.80;;;13.10;99.90;;;;;;4998538;28;20131;-69
2023/10/21 08:04:57;;;;;;;4.55;4.28;;;13.10;99.90;;;;;;5001015;28;20133;-70
2023/10/21 08:07:24;;;;;;;4.47;4.10;;;13.10;99.90;;;;;;4996452;28;20053;-71
2023/10/21 08:09:52;;;;;;;5.13;4.75;;;13.20;99.90;;;;;;4992635;28;20129;-68
2023/10/21 08:12:18;;;;;;;6.90;6.38;;;13.30;99.90;;;;;;4992161;28;21764;-70
2023/10/21 08:14:45;;;;;;;4.65;4.35;;;13.30;99.90;;;;;;5017042;28;20049;-69
2023/10/21 08:17:12;;;;;;;5.45;5.05;;;13.40;99.90;;;;;;4984385;28;20572;-69
2023/10/21 08:19:39;;;;;;;4.93;4.38;;;13.40;99.90;;;;;;4999232;28;20033;-69
2023/10/21 08:22:06;;;;;;;4.40;4.20;;;13.50;99.90;;;;;;4997426;28;20128;-69
2023/10/21 08:24:33;;;;;;;3.75;3.50;;;13.70;99.90;;;;;;5005186;28;20615;-70
2023/10/21 08:27:02;;;;;;;5.35;4.95;;;13.90;99.90;;;;;;4989147;28;20056;-69
2023/10/21 08:29:30;;;;;;;4.13;3.92;;;14.10;99.90;;;;;;5028193;28;20602;-69
2023/10/21 08:31:56;;;;;;;4.70;4.45;;;14.30;99.90;;;;;;5001718;28;20038;-70
2023/10/21 08:34:23;;;;;;;6.55;6.35;;;14.40;99.90;;;;;;5006760;28;20066;-69
2023/10/21 08:36:50;;;;;;;6.28;5.90;;;14.30;99.90;;;;;;4990186;28;20049;-70
2023/10/21 08:39:16;;;;;;;6.88;6.57;;;14.30;99.90;;;;;;4991971;28;20042;-71
2023/10/21 08:41:44;;;;;;;6.38;6.07;;;14.20;99.90;;;;;;5003041;28;20103;-71
2023/10/21 08:44:12;;;;;;;7.35;6.95;;;14.20;99.90;;;;;;4986283;28;20149;-69
2023/10/21 08:46:41;;;;;;;6.03;5.72;;;14.20;99.90;;;;;;4998577;28;20084;-70
2023/10/21 08:49:10;;;;;;;5.88;5.57;;;14.20;99.90;;;;;;4985952;28;20686;-69
2023/10/21 08:51:37;;;;;;;6.07;5.75;;;14.20;99.90;;;;;;4981125;28;20045;-71
2023/10/21 08:54:04;;;;;;;5.57;5.38;;;14.20;99.90;;;;;;5009590;28;20104;-69
2023/10/21 08:56:33;;;;;;;5.65;5.35;;;14.30;99.90;;;;;;5007558;28;20502;-70
2023/10/21 08:59:01;;;;;;;6.30;6.00;;;14.30;99.90;;;;;;4999246;28;20045;-71
2023/10/21 09:01:28;;;;;;;7.35;6.95;;;14.40;99.90;;;;;;4998031;28;20562;-69
2023/10/21 09:03:59;;;;;;;8.43;8.02;;;14.50;99.90;;;;;;5000455;28;20095;-70
2023/10/21 09:06:27;;;;;;;13.43;11.73;;;14.50;99.90;;;;;;4995288;28;20049;-70
2023/10/21 09:08:54;;;;;;;9.63;8.80;;;14.60;99.90;;;;;;5022399;28;20045;-71
2023/10/21 09:11:25;;;;;;;9.77;9.38;;;14.60;99.90;;;;;;4986701;28;20448;-69
2023/10/21 09:13:56;;;;;;;9.98;9.52;;;14.70;99.90;;;;;;4999941;28;20042;-71
2023/10/21 09:16:29;;;;;;;10.00;9.38;;;14.70;99.90;;;;;;4986494;28;20089;-69
2023/10/21 09:19:01;;;;;;;10.18;9.77;;;14.80;99.90;;;;;;4990225;28;20165;-69
2023/10/21 09:21:38;;;;;;;12.55;12.05;;;14.90;99.90;;;;;;5018630;28;20779;-69
2023/10/21 09:24:09;;;;;;;12.90;12.40;;;14.90;99.90;;;;;;4989242;28;20035;-67
2023/10/21 09:26:41;;;;;;;12.07;11.38;;;14.90;99.90;;;;;;5015729;28;20072;-69
2023/10/21 09:29:13;;;;;;;14.20;13.60;;;15.10;99.90;;;;;;4992710;28;20053;-69
2023/10/21 09:31:53;;;;;;;14.18;13.45;;;15.30;99.90;;;;;;4997901;28;20049;-69
2023/10/21 09:34:29;;;;;;;15.82;15.15;;;15.30;99.90;;;;;;4989721;28;20049;-69
2023/10/21 09:36:58;;;;;;;17.15;16.45;;;15.30;99.90;;;;;;4998094;28;20547;-69
2023/10/21 09:39:30;;;;;;;20.40;19.40;;;15.40;99.90;;;;;;4998666;28;20050;-70
2023/10/21 09:41:59;;;;;;;22.20;20.90;;;15.40;99.90;;;;;;4988112;28;20046;-68
2023/10/21 09:44:27;;;;;;;19.17;18.33;;;15.20;99.90;;;;;;4992682;28;20806;-71
2023/10/21 09:46:55;;;;;;;16.38;15.57;;;15.10;99.90;;;;;;4994449;28;20041;-70
2023/10/21 09:49:24;;;;;;;16.25;15.65;;;15.00;99.90;;;;;;4988374;28;20658;-72
2023/10/21 09:52:30;;;;;;;15.85;15.15;;;15.00;99.90;;;;;;4977985;28;20567;-71
2023/10/21 09:55:07;;;;;;;18.17;17.48;;;15.00;99.90;;;;;;4992946;28;20046;-71
2023/10/21 09:57:40;;;;;;;18.27;17.48;;;14.90;99.90;;;;;;5001142;28;20046;-71
2023/10/21 10:00:08;;;;;;;18.65;17.83;;;14.70;99.90;;;;;;4992578;28;20096;-71
2023/10/21 10:02:40;;;;;;;18.05;17.13;;;14.60;99.90;;;;;;4990986;28;20042;-71
2023/10/21 10:05:08;;;;;;;15.10;14.40;;;14.70;99.90;;;;;;4996098;28;20118;-70
2023/10/21 10:07:36;;;;;;;17.92;17.17;;;14.70;99.90;;;;;;4996930;28;20044;-71
2023/10/21 10:10:12;;;;;;;19.83;18.92;;;14.90;99.90;;;;;;4989023;28;20364;-72
2023/10/21 10:12:57;;;;;;;20.15;19.25;;;14.90;99.90;;;;;;4980686;28;20037;-72
2023/10/21 10:15:29;;;;;;;19.17;18.27;;;14.80;99.90;;;;;;4992367;28;20038;-72
2023/10/21 10:17:57;;;;;;;22.10;21.10;;;14.60;99.90;;;;;;5034724;28;20045;-73
2023/10/21 10:20:26;;;;;;;21.52;20.27;;;14.70;99.90;;;;;;4988003;28;20120;-73
2023/10/21 10:23:07;;;;;;;21.50;20.60;;;14.80;99.90;;;;;;4997309;28;20046;-74
2023/10/21 10:25:36;;;;;;;20.77;19.88;;;14.80;99.90;;;;;;4993571;28;20497;-74
2023/10/21 10:28:07;;;;;;;21.58;20.58;;;14.80;99.90;;;;;;5027654;28;20049;-75
2023/10/21 10:30:43;;;;;;;20.88;19.98;;;14.90;99.90;;;;;;5005845;28;20050;-74
2023/10/21 10:33:15;;;;;;;21.65;20.75;;;15.10;99.90;;;;;;4993810;28;20033;-75
2023/10/21 10:35:56;;;;;;;21.20;20.20;;;15.00;99.90;;;;;;5002344;28;20042;-75
2023/10/21 10:38:28;;;;;;;22.20;21.15;;;14.90;99.90;;;;;;5002033;28;20591;-75
2023/10/21 10:41:06;;;;;;;24.13;22.77;;;14.80;99.90;;;;;;4993957;28;20034;-76
2023/10/21 10:43:34;;;;;;;21.63;20.73;;;14.80;99.90;;;;;;4987729;28;20054;-76
2023/10/21 10:46:01;;;;;;;23.77;22.48;;;14.80;99.90;;;;;;4976306;28;20252;-75
2023/10/21 10:48:29;;;;;;;23.10;22.05;;;14.80;99.90;;;;;;4997827;28;20513;-76
2023/10/21 10:51:01;;;;;;;21.70;20.70;;;14.60;99.90;;;;;;4994891;28;20874;-75
2023/10/21 10:53:28;;;;;;;22.38;21.27;;;14.50;99.90;;;;;;5020163;28;20057;-76
2023/10/21 10:55:55;;;;;;;23.67;22.50;;;14.60;99.90;;;;;;5000121;28;20758;-77
2023/10/21 10:58:26;;;;;;;21.95;21.05;;;14.80;99.90;;;;;;5000546;28;20109;-73
2023/10/21 11:00:53;;;;;;;24.50;23.42;;;14.80;99.90;;;;;;4993551;28;20065;-72
2023/10/21 11:03:24;;;;;;;26.17;24.77;;;14.70;99.90;;;;;;4992829;28;20061;-77
2023/10/21 11:05:55;;;;;;;24.70;23.52;;;14.80;99.90;;;;;;4995274;28;20034;-76
2023/10/21 11:08:22;;;;;;;21.65;20.55;;;14.60;99.90;;;;;;4992708;28;20054;-77
2023/10/21 11:10:53;;;;;;;22.13;21.13;;;14.70;99.90;;;;;;4990571;28;20052;-76
2023/10/21 11:13:20;;;;;;;22.00;21.00;;;14.80;99.90;;;;;;4991952;28;20049;-77
2023/10/21 11:15:51;;;;;;;22.00;20.95;;;14.90;99.90;;;;;;4997124;28;20104;-72
2023/10/21 11:18:18;;;;;;;23.63;22.52;;;14.90;99.90;;;;;;4990130;28;20042;-74
2023/10/21 11:20:49;;;;;;;21.35;20.25;;;14.80;99.90;;;;;;5002498;28;20718;-73
2023/10/21 11:23:20;;;;;;;22.63;21.52;;;14.80;99.90;;;;;;4993993;28;20050;-72
2023/10/21 11:25:55;;;;;;;20.25;19.15;;;14.80;99.90;;;;;;4993977;28;20624;-72
2023/10/21 11:28:24;;;;;;;19.75;18.65;;;14.90;99.90;;;;;;5021219;28;20057;-73
2023/10/21 11:30:52;;;;;;;20.08;19.08;;;15.10;99.90;;;;;;4998786;28;20532;-73
2023/10/21 11:33:18;;;;;;;21.58;20.17;;;15.40;99.90;;;;;;4993743;28;20464;-73
2023/10/21 11:35:47;;;;;;;19.45;18.35;;;15.60;99.90;;;;;;4996243;28;20738;-72
2023/10/21 11:38:19;;;;;;;19.77;18.70;;;15.60;99.90;;;;;;5001848;28;20042;-73
2023/10/21 11:40:46;;;;;;;20.55;19.35;;;15.60;99.90;;;;;;5025380;28;20454;-73
2023/10/21 11:43:17;;;;;;;20.13;19.00;;;15.70;99.90;;;;;;4988398;28;20046;-74
2023/10/21 11:45:49;;;;;;;21.70;20.70;;;15.60;99.90;;;;;;4995905;28;20049;-73
2023/10/21 11:48:17;;;;;;;19.38;18.27;;;15.50;99.90;;;;;;5029388;28;20094;-73
2023/10/21 11:50:45;;;;;;;19.70;18.52;;;15.40;99.90;;;;;;5026709;28;20037;-73
2023/10/21 11:53:13;;;;;;;20.10;18.77;;;15.60;99.90;;;;;;5026813;28;20054;-72
2023/10/21 12:12:38;;;;;;;20.70;19.50;;;16.20;99.90;;;;;;4995864;28;20743;-71
2023/10/21 12:23:14;;;;;;;23.05;21.55;;;16.30;99.90;;;;;;5006115;28;20099;-73
2023/10/21 12:33:45;;;;;;;22.92;21.63;;;15.80;99.90;;;;;;4998362;28;20083;-71
2023/10/21 12:38:56;;;;;;;22.00;20.80;;;15.80;99.90;;;;;;5007244;28;20630;-73
2023/10/21 12:41:26;;;;;;;22.85;21.45;;;15.70;99.90;;;;;;4995461;28;20050;-72
2023/10/21 12:43:58;;;;;;;22.30;21.00;;;15.80;99.90;;;;;;4993534;28;20495;-74
2023/10/21 12:46:25;;;;;;;22.58;21.15;;;15.90;99.90;;;;;;4997155;28;20049;-73
2023/10/21 12:48:52;;;;;;;20.65;19.45;;;16.10;99.90;;;;;;4998881;28;20053;-73
2023/10/21 12:51:23;;;;;;;22.42;21.00;;;16.20;99.90;;;;;;5002493;28;20062;-72
2023/10/21 12:53:50;;;;;;;21.83;20.52;;;16.40;99.90;;;;;;4998146;28;20664;-73
2023/10/21 12:56:33;;;;;;;23.30;22.10;;;16.50;99.90;;;;;;4996255;28;20053;-73
2023/10/21 12:59:00;;;;;;;23.00;21.70;;;16.30;99.90;;;;;;4999895;28;20084;-73
2023/10/21 13:01:28;;;;;;;24.67;23.15;;;16.20;99.90;;;;;;4993496;28;20078;-73
2023/10/21 13:03:57;;;;;;;24.08;22.67;;;16.10;99.90;;;;;;4989387;28;20065;-72
2023/10/21 13:06:24;;;;;;;23.00;21.80;;;16.00;99.90;;;;;;4993405;28;20053;-73
2023/10/21 13:08:51;;;;;;;27.48;25.80;;;15.90;99.90;;;;;;4996428;28;20729;-72
2023/10/21 13:11:18;;;;;;;23.98;22.45;;;15.70;99.90;;;;;;4990891;28;20046;-73
2023/10/21 13:13:45;;;;;;;22.73;21.42;;;15.60;99.90;;;;;;4993991;28;20857;-73